Архив погоды в Молчаново

Метеограмма Молчаново
Вторник, 25 Июня
Время местн. Темп Ветер Видим Явления Облачность нижн/средн/верх Атм. давл. Влжн Точка росы ВНГО R Сост. почвы Tg s
Напр Скр Прв ур.ст ур.м изм
09:00 +17.6° Ю,Ю-З 2 - 20 км - облачно 749 759 +0.3 72% +12.4° - - - - -
06:00 +13° Ю,Ю-З 2 - 20 км - облачно 749 759 +0.4 89% +11.3° - 0 Сухая (без трещин) - -
03:00 +12° Ю,Ю-З 2 - 20 км - облачно с прояснениями 749 759 0 93% +10.9° - - - - -
00:00 +13° Ю 1 - 20 км небо без изменений {ливневые осадки} облачно с прояснениями 749 759 -0.1 92% +11.8° - - - - -
Понедельник, 24 Июня
Время местн. Темп Ветер Видим Явления Облачность нижн/средн/верх Атм. давл. Влжн Точка росы ВНГО R Сост. почвы Tg s
Напр Скр Прв ур.ст ур.м изм
21:00 +14.6° В,Ю-В 1 - 20 км ливневый дождь облачно 749 759 +0.4 89% +12.8° 600 м - - - -
18:00 +17.1° С 1 - 20 км - облачно 748 758 +0.4 69% +11.3° 1 км 0 - - -
15:00 +17.9° С 1 - 20 км - облачно 748 758 +0.2 64% +11° 1 км - - - -
12:00 +16.6° З 2 - 20 км - облачно 748 758 +0.2 64% +9.7° 1 км - - - -
09:00 +15.4° З 2 - 20 км - облачно 748 758 +0.2 70% +10° 1 км - - - -
06:00 +12.3° З 1 - 20 км - облачно 747 758 +0.7 91% +10.8° 1 км 0 Сухая (без трещин) - -
03:00 +11.8° З 1 - 20 км небо без изменений {ливневые осадки} облачно 747 757 -0.7 92% +10.5° 600 м - - - -
00:00 +13.7° З 1 - 20 км небо без изменений {ливневые осадки} облачно 747 757 +0.1 85% +11.2° 600 м - - - -
Воскресенье, 23 Июня
Время местн. Темп Ветер Видим Явления Облачность нижн/средн/верх Атм. давл. Влжн Точка росы ВНГО R Сост. почвы Tg s
Напр Скр Прв ур.ст ур.м изм
21:00 +14.9° С 1 - 20 км - облачно 747 757 +0.6 79% +11.2° 600 м - - - -
18:00 +16.8° З,С-З 1 - 20 км - облачно 747 757 +0.2 71% +11.5° 1 км 0 - - -
15:00 +18.5° С-З 1 - 20 км - облачно 747 756 +0.5 64% +11.5° 600 м - - - -
12:00 +19° С-З 1 - 20 км - облачно 746 756 +0.3 64% +12.1° 600 м - - - -
09:00 +17.2° С,С-З 1 - 20 км - облачно 746 756 +0.6 75% +12.8° 600 м - - - -
06:00 +14.4° штиль 0 - 20 км небо без изменений {ливневые осадки} облачно с прояснениями 745 755 +0.2 94% +13.4° 1 км 1 Влажная (без луж) - -
03:00 +14.4° штиль 0 - 20 км - облачно 745 755 0 92% +13.2° 1 км - - - -
00:00 +14.4° штиль 0 - 20 км ливневый дождь {гроза} облачно 745 755 -0.1 92% +13.2° 600 м - - - -
Суббота, 22 Июня
Время местн. Темп Ветер Видим Явления Облачность нижн/средн/верх Атм. давл. Влжн Точка росы ВНГО R Сост. почвы Tg s
Напр Скр Прв ур.ст ур.м изм
21:00 +16° штиль 0 - 20 км небо без изменений {гроза} облачно с прояснениями 745 755 +0.1 82% +13° - - - - -
18:00 +17.6° З 2 - 20 км гроза без осадков облачно 745 755 +0.6 75% +13.1° 600 м 0 - - -
15:00 +24.8° Ю-В 3 - 20 км - облачно с прояснениями 744 754 -1.2 38% +9.5° 1 км - - - -
12:00 +23.9° Ю-В 3 - 20 км - облачно 746 755 -1 38% +8.7° 1 км - - - -
09:00 +22.5° Ю,Ю-В 2 - 20 км - облачно 747 756 -0.5 49% +11.2° 1 км - - - -
06:00 +16.8° Ю 1 - 20 км - облачно 747 757 -0.3 65% +10.2° более 2.5 км 0 Сухая (без трещин) - -